createdAt,value
2018-07-30T00:00:40.182Z,0
2018-07-30T00:01:39.921Z,0
2018-07-30T00:02:40.173Z,0
2018-07-30T00:03:40.172Z,0
2018-07-30T00:04:40.180Z,0
2018-07-30T00:05:40.168Z,0
2018-07-30T00:06:40.172Z,0
2018-07-30T00:07:39.920Z,0
2018-07-30T00:08:39.918Z,0
2018-07-30T00:09:40.160Z,0
2018-07-30T00:10:39.908Z,0
2018-07-30T00:11:40.165Z,0
2018-07-30T00:12:40.158Z,0
2018-07-30T00:13:40.153Z,0
2018-07-30T00:14:40.156Z,0
2018-07-30T00:15:40.156Z,0
2018-07-30T00:16:39.892Z,0
2018-07-30T00:17:40.146Z,0
2018-07-30T00:18:40.136Z,0
2018-07-30T00:19:40.144Z,0
2018-07-30T00:20:40.168Z,0
2018-07-30T00:21:39.903Z,0
2018-07-30T00:22:40.133Z,0
2018-07-30T00:23:40.133Z,0
2018-07-30T00:24:39.879Z,0
2018-07-30T00:25:39.869Z,0
2018-07-30T00:26:40.122Z,0
2018-07-30T00:27:40.119Z,0
2018-07-30T00:28:39.871Z,0
2018-07-30T00:29:40.122Z,0
2018-07-30T00:30:40.125Z,0
2018-07-30T00:31:40.363Z,0
2018-07-30T00:32:40.112Z,0
2018-07-30T00:33:40.108Z,0
2018-07-30T00:34:40.109Z,0
2018-07-30T00:35:40.109Z,0
2018-07-30T00:36:39.856Z,0
2018-07-30T00:37:40.097Z,0
2018-07-30T00:38:39.591Z,0
2018-07-30T00:39:40.102Z,0
2018-07-30T00:40:40.092Z,0
2018-07-30T00:41:40.089Z,0
2018-07-30T00:42:40.085Z,0
2018-07-30T00:43:39.843Z,0
2018-07-30T00:44:40.099Z,0
2018-07-30T00:45:39.580Z,0
2018-07-30T00:46:40.082Z,0
2018-07-30T00:47:40.089Z,0
2018-07-30T00:48:40.084Z,0
2018-07-30T00:49:40.071Z,0
2018-07-30T00:50:40.068Z,0
2018-07-30T00:51:39.825Z,0
2018-07-30T00:52:40.066Z,0
2018-07-30T00:53:39.819Z,0
2018-07-30T00:54:40.069Z,0
2018-07-30T00:55:40.061Z,0
2018-07-30T00:56:40.087Z,0
2018-07-30T00:57:40.053Z,0
2018-07-30T00:58:40.053Z,0
2018-07-30T00:59:40.053Z,0
2018-07-30T01:00:40.050Z,0
2018-07-30T01:01:39.798Z,0
2018-07-30T01:02:40.049Z,0
2018-07-30T01:03:39.793Z,0
2018-07-30T01:04:39.804Z,0
2018-07-30T01:05:39.537Z,0
2018-07-30T01:06:40.038Z,0
2018-07-30T01:07:40.307Z,0
2018-07-30T01:08:40.034Z,0
2018-07-30T01:09:40.026Z,0
2018-07-30T01:10:40.029Z,0
2018-07-30T01:11:39.777Z,0
2018-07-30T01:12:40.021Z,0
2018-07-30T01:13:40.023Z,0
2018-07-30T01:14:40.039Z,0
2018-07-30T01:15:39.764Z,0
2018-07-30T01:16:39.518Z,0
2018-07-30T01:17:40.040Z,0
2018-07-30T01:18:39.792Z,0
2018-07-30T01:19:40.026Z,0
2018-07-30T01:20:40.009Z,0
2018-07-30T01:21:39.917Z,0
2018-07-30T01:22:39.752Z,0
2018-07-30T01:23:40.009Z,0
2018-07-30T01:24:39.995Z,0
2018-07-30T01:25:39.991Z,0
2018-07-30T01:26:39.995Z,0
2018-07-30T01:27:39.992Z,0
2018-07-30T01:28:39.987Z,0
2018-07-30T01:29:39.733Z,0
2018-07-30T01:30:39.984Z,0
2018-07-30T01:31:39.981Z,0
2018-07-30T01:32:39.979Z,0
2018-07-30T01:33:39.975Z,0
2018-07-30T01:34:39.973Z,0
2018-07-30T01:35:39.723Z,0
2018-07-30T01:36:39.973Z,0
2018-07-30T01:37:39.964Z,0
2018-07-30T01:38:39.973Z,0
2018-07-30T01:39:39.964Z,0
2018-07-30T01:40:39.958Z,0
2018-07-30T01:41:39.708Z,0
2018-07-30T01:42:39.959Z,0
2018-07-30T01:43:39.712Z,0
2018-07-30T01:44:39.954Z,0
2018-07-30T01:45:39.953Z,0
2018-07-30T01:46:39.948Z,0
2018-07-30T01:47:39.944Z,0
2018-07-30T01:48:39.690Z,0
2018-07-30T01:49:39.691Z,0
2018-07-30T01:50:39.940Z,0
2018-07-30T01:51:39.690Z,0
2018-07-30T01:52:39.937Z,0
2018-07-30T01:53:39.687Z,0
2018-07-30T01:54:39.679Z,0
2018-07-30T01:55:40.112Z,0
2018-07-30T01:56:39.720Z,0
2018-07-30T01:57:39.971Z,0
2018-07-30T01:58:39.671Z,0
2018-07-30T01:59:39.920Z,0
2018-07-30T02:00:39.917Z,0
2018-07-30T02:01:39.913Z,0
2018-07-30T02:02:39.913Z,0
2018-07-30T02:03:39.662Z,0
2018-07-30T02:04:39.911Z,0
2018-07-30T02:05:39.906Z,0
2018-07-30T02:06:39.658Z,0
2018-07-30T02:07:39.911Z,0
2018-07-30T02:08:39.654Z,0
2018-07-30T02:09:39.905Z,4
2018-07-30T02:10:39.914Z,4
2018-07-30T02:11:39.892Z,4
2018-07-30T02:12:39.905Z,4
2018-07-30T02:13:39.639Z,4
2018-07-30T02:14:39.887Z,4
2018-07-30T02:15:39.884Z,0
2018-07-30T02:16:39.883Z,0
2018-07-30T02:17:39.628Z,0
2018-07-30T02:18:39.886Z,0
2018-07-30T02:19:39.879Z,0
2018-07-30T02:20:39.877Z,0
2018-07-30T02:21:39.741Z,0
2018-07-30T02:22:39.887Z,0
2018-07-30T02:23:39.619Z,0
2018-07-30T02:24:39.883Z,0
2018-07-30T02:25:39.873Z,0
2018-07-30T02:26:39.617Z,0
2018-07-30T02:27:39.608Z,0
2018-07-30T02:28:39.609Z,0
2018-07-30T02:29:39.917Z,0
2018-07-30T02:30:39.866Z,0
2018-07-30T02:31:39.860Z,0
2018-07-30T02:32:39.867Z,0
2018-07-30T02:33:39.858Z,0
2018-07-30T02:34:39.858Z,0
2018-07-30T02:35:39.860Z,0
2018-07-30T02:36:39.592Z,0
2018-07-30T02:37:39.850Z,0
2018-07-30T02:38:39.844Z,4
2018-07-30T02:39:39.847Z,4
2018-07-30T02:40:39.842Z,4
2018-07-30T02:41:39.834Z,0
2018-07-30T02:42:39.902Z,0
2018-07-30T02:43:39.603Z,4
2018-07-30T02:44:39.585Z,4
2018-07-30T02:45:39.839Z,4
2018-07-30T02:46:39.841Z,0
2018-07-30T02:47:39.833Z,4
2018-07-30T02:48:39.827Z,4
2018-07-30T02:49:39.818Z,8
2018-07-30T02:50:39.820Z,4
2018-07-30T02:51:39.823Z,8
2018-07-30T02:52:39.835Z,4
2018-07-30T02:53:39.558Z,8
2018-07-30T02:54:39.555Z,8
2018-07-30T02:55:39.556Z,8
2018-07-30T02:56:39.809Z,12
2018-07-30T02:57:40.133Z,12
2018-07-30T02:58:39.810Z,16
2018-07-30T02:59:39.798Z,16
2018-07-30T03:00:39.796Z,16
2018-07-30T03:01:39.798Z,20
2018-07-30T03:02:39.803Z,16
2018-07-30T03:03:39.789Z,20
2018-07-30T03:04:39.534Z,24
2018-07-30T03:05:39.791Z,24
2018-07-30T03:06:39.548Z,28
2018-07-30T03:07:39.781Z,28
2018-07-30T03:08:39.781Z,36
2018-07-30T03:09:39.776Z,36
2018-07-30T03:10:39.773Z,40
2018-07-30T03:11:39.771Z,48
2018-07-30T03:12:39.267Z,52
2018-07-30T03:13:39.267Z,60
2018-07-30T03:14:39.769Z,68
2018-07-30T03:15:39.762Z,76
2018-07-30T03:16:39.761Z,84
2018-07-30T03:17:39.510Z,96
2018-07-30T03:18:39.513Z,100
2018-07-30T03:19:39.754Z,112
2018-07-30T03:20:39.501Z,120
2018-07-30T03:21:39.752Z,128
2018-07-30T03:22:39.754Z,132
2018-07-30T03:23:39.752Z,136
2018-07-30T03:24:39.499Z,144
2018-07-30T03:25:39.494Z,164
2018-07-30T03:26:39.488Z,184
2018-07-30T03:27:39.492Z,208
2018-07-30T03:28:39.910Z,232
2018-07-30T03:29:39.740Z,268
2018-07-30T03:30:39.738Z,308
2018-07-30T03:31:39.737Z,348
2018-07-30T03:32:39.479Z,392
2018-07-30T03:33:39.734Z,440
2018-07-30T03:34:39.729Z,488
2018-07-30T03:35:39.478Z,540
2018-07-30T03:36:39.734Z,592
2018-07-30T03:37:39.723Z,640
2018-07-30T03:38:39.466Z,688
2018-07-30T03:39:39.469Z,740
2018-07-30T03:40:39.717Z,792
2018-07-30T03:41:39.715Z,840
2018-07-30T03:42:39.461Z,884
2018-07-30T03:43:39.463Z,920
2018-07-30T03:44:39.459Z,956
2018-07-30T03:45:39.711Z,996
2018-07-30T03:46:39.705Z,1032
2018-07-30T03:47:39.709Z,1072
2018-07-30T03:48:39.448Z,1092
2018-07-30T03:49:39.452Z,1104
2018-07-30T03:50:39.727Z,1112
2018-07-30T03:51:39.702Z,1120
2018-07-30T03:52:39.697Z,1136
2018-07-30T03:53:39.446Z,1176
2018-07-30T03:54:39.825Z,1236
2018-07-30T03:55:39.693Z,1280
2018-07-30T03:56:39.703Z,1272
2018-07-30T03:57:39.691Z,1252
2018-07-30T03:58:39.683Z,1260
2018-07-30T03:59:39.431Z,1320
2018-07-30T04:00:39.684Z,1208
2018-07-30T04:01:39.681Z,1104
2018-07-30T04:02:39.426Z,1072
2018-07-30T04:03:39.423Z,1084
2018-07-30T04:04:39.676Z,1096
2018-07-30T04:05:39.672Z,1116
2018-07-30T04:06:39.779Z,1148
2018-07-30T04:07:39.673Z,1184
2018-07-30T04:08:39.669Z,1208
2018-07-30T04:09:39.423Z,1248
2018-07-30T04:10:39.668Z,1292
2018-07-30T04:11:39.415Z,1328
2018-07-30T04:12:39.453Z,1372
2018-07-30T04:13:39.422Z,1416
2018-07-30T04:14:39.665Z,1460
2018-07-30T04:15:39.158Z,1504
2018-07-30T04:16:39.656Z,1548
2018-07-30T04:17:39.406Z,1588
2018-07-30T04:18:39.660Z,1644
2018-07-30T04:19:39.154Z,1704
2018-07-30T04:20:39.652Z,1768
2018-07-30T04:21:39.148Z,1836
2018-07-30T04:22:39.658Z,1896
2018-07-30T04:23:39.649Z,1944
2018-07-30T04:24:39.659Z,1980
2018-07-30T04:25:39.402Z,2004
2018-07-30T04:26:39.394Z,2032
2018-07-30T04:27:39.644Z,2080
2018-07-30T04:28:39.392Z,2152
2018-07-30T04:29:39.640Z,2244
2018-07-30T04:30:39.644Z,2336
2018-07-30T04:31:39.386Z,2448
2018-07-30T04:32:39.385Z,2624
2018-07-30T04:33:39.639Z,2816
2018-07-30T04:34:39.387Z,2988
2018-07-30T04:35:39.640Z,3144
2018-07-30T04:36:39.638Z,3280
2018-07-30T04:37:39.378Z,3420
2018-07-30T04:38:39.127Z,3556
2018-07-30T04:39:39.626Z,3716
2018-07-30T04:40:39.373Z,3888
2018-07-30T04:41:39.637Z,4048
2018-07-30T04:42:39.622Z,4216
2018-07-30T04:43:39.679Z,4388
2018-07-30T04:44:39.639Z,4580
2018-07-30T04:45:39.372Z,4772
2018-07-30T04:46:39.375Z,4960
2018-07-30T04:47:39.616Z,5160
2018-07-30T04:48:39.616Z,5360
2018-07-30T04:49:39.620Z,5564
2018-07-30T04:50:39.366Z,5780
2018-07-30T04:51:39.614Z,6012
2018-07-30T04:52:39.609Z,6244
2018-07-30T04:53:39.364Z,6444
2018-07-30T04:54:39.609Z,6620
2018-07-30T04:55:39.608Z,6804
2018-07-30T04:56:39.620Z,7020
2018-07-30T04:57:39.368Z,7256
2018-07-30T04:58:39.604Z,7480
2018-07-30T04:59:39.607Z,7692
2018-07-30T05:00:39.610Z,7900
2018-07-30T05:01:39.352Z,8124
2018-07-30T05:02:39.608Z,8388
2018-07-30T05:03:39.099Z,8656
2018-07-30T05:04:39.352Z,8932
2018-07-30T05:05:39.598Z,9232
2018-07-30T05:06:39.603Z,9524
2018-07-30T05:07:39.346Z,9768
2018-07-30T05:08:39.102Z,9976
2018-07-30T05:09:39.609Z,10240
2018-07-30T05:10:39.600Z,10484
2018-07-30T05:11:39.607Z,10672
2018-07-30T05:12:39.653Z,10796
2018-07-30T05:13:39.605Z,10904
2018-07-30T05:14:39.603Z,10992
2018-07-30T05:15:39.598Z,10996
2018-07-30T05:16:39.345Z,10996
2018-07-30T05:17:39.598Z,11016
2018-07-30T05:18:39.637Z,11040
2018-07-30T05:19:39.735Z,11080
2018-07-30T05:20:39.098Z,11140
2018-07-30T05:21:39.596Z,11180
2018-07-30T05:22:39.608Z,11192
2018-07-30T05:23:39.599Z,11244
2018-07-30T05:24:39.609Z,11212
2018-07-30T05:25:39.663Z,11076
2018-07-30T05:26:39.355Z,10968
2018-07-30T05:27:39.351Z,10916
2018-07-30T05:28:39.607Z,10864
2018-07-30T05:29:39.354Z,10784
2018-07-30T05:30:39.605Z,10696
2018-07-30T05:31:39.451Z,10644
2018-07-30T05:32:39.367Z,10628
2018-07-30T05:33:39.364Z,10632
2018-07-30T05:34:39.358Z,10644
2018-07-30T05:35:39.614Z,10668
2018-07-30T05:36:39.364Z,10676
2018-07-30T05:37:39.368Z,10680
2018-07-30T05:38:39.619Z,10660
2018-07-30T05:39:39.630Z,10612
2018-07-30T05:40:39.117Z,10544
2018-07-30T05:41:39.370Z,10468
2018-07-30T05:42:39.155Z,10388
2018-07-30T05:43:39.120Z,10324
2018-07-30T05:44:39.633Z,10228
2018-07-30T05:45:39.625Z,10100
2018-07-30T05:46:39.631Z,9980
2018-07-30T05:47:39.379Z,9840
2018-07-30T05:48:39.648Z,9640
2018-07-30T05:49:39.634Z,9408
2018-07-30T05:50:39.384Z,9208
2018-07-30T05:51:39.642Z,9024
2018-07-30T05:52:39.635Z,8928
2018-07-30T05:53:39.643Z,8900
2018-07-30T05:54:39.639Z,8928
2018-07-30T05:55:39.643Z,8988
2018-07-30T05:56:39.646Z,9048
2018-07-30T05:57:39.398Z,9116
2018-07-30T05:58:39.657Z,9192
2018-07-30T05:59:39.696Z,9292
2018-07-30T06:00:39.438Z,9400
2018-07-30T06:01:39.650Z,9500
2018-07-30T06:02:39.654Z,9596
2018-07-30T06:03:39.669Z,9692
2018-07-30T06:04:39.664Z,9756
2018-07-30T06:05:39.950Z,9796
2018-07-30T06:06:39.668Z,9812
2018-07-30T06:07:39.662Z,9828
2018-07-30T06:08:39.664Z,9884
2018-07-30T06:09:39.869Z,9952
2018-07-30T06:10:39.417Z,10040
2018-07-30T06:11:39.673Z,10116
2018-07-30T06:12:39.665Z,10196
2018-07-30T06:13:39.669Z,10280
2018-07-30T06:14:39.177Z,10356
2018-07-30T06:15:39.685Z,10428
2018-07-30T06:16:39.688Z,10500
2018-07-30T06:17:39.434Z,10616
2018-07-30T06:18:39.676Z,10744
2018-07-30T06:19:39.430Z,10900
2018-07-30T06:20:39.689Z,11068
2018-07-30T06:21:39.436Z,11212
2018-07-30T06:22:39.436Z,11340
2018-07-30T06:23:39.436Z,11468
2018-07-30T06:24:39.687Z,11600
2018-07-30T06:25:39.689Z,11724
2018-07-30T06:26:39.796Z,11848
2018-07-30T06:27:39.706Z,12016
2018-07-30T06:28:39.754Z,12200
2018-07-30T06:29:39.725Z,12400
2018-07-30T06:30:39.739Z,12584
2018-07-30T06:31:39.699Z,12784
2018-07-30T06:32:39.705Z,13004
2018-07-30T06:33:39.703Z,13288
2018-07-30T06:34:39.701Z,13620
2018-07-30T06:35:39.703Z,13936
2018-07-30T06:36:39.711Z,14240
2018-07-30T06:37:39.707Z,14476
2018-07-30T06:38:39.897Z,14648
2018-07-30T06:39:39.723Z,14760
2018-07-30T06:40:39.717Z,14836
2018-07-30T06:41:39.731Z,14848
2018-07-30T06:42:39.464Z,14804
2018-07-30T06:43:39.475Z,14696
2018-07-30T06:44:39.736Z,14564
2018-07-30T06:45:39.729Z,14436
2018-07-30T06:46:39.725Z,14320
2018-07-30T06:47:39.482Z,14216
2018-07-30T06:48:39.741Z,14092
2018-07-30T06:49:39.755Z,13992
2018-07-30T06:50:39.750Z,13888
2018-07-30T06:51:39.493Z,13780
2018-07-30T06:52:39.755Z,13692
2018-07-30T06:53:39.753Z,13632
2018-07-30T06:54:39.502Z,13564
2018-07-30T06:55:39.748Z,13496
2018-07-30T06:56:39.755Z,13448
2018-07-30T06:57:39.760Z,13404
2018-07-30T06:58:39.507Z,13384
2018-07-30T06:59:39.510Z,13380
2018-07-30T07:00:39.761Z,13388
2018-07-30T07:01:39.514Z,13396
2018-07-30T07:02:39.540Z,13436
2018-07-30T07:03:39.518Z,13436
2018-07-30T07:04:39.788Z,13416
2018-07-30T07:05:39.776Z,13424
2018-07-30T07:06:39.778Z,13404
2018-07-30T07:07:39.780Z,13364
2018-07-30T07:08:39.550Z,13348
2018-07-30T07:09:39.791Z,13256
2018-07-30T07:10:39.819Z,13156
2018-07-30T07:11:39.553Z,13076
2018-07-30T07:12:39.797Z,13008
2018-07-30T07:13:39.800Z,12960
2018-07-30T07:14:39.550Z,12928
2018-07-30T07:15:39.805Z,12920
2018-07-30T07:16:39.838Z,12940
2018-07-30T07:17:39.811Z,12996
2018-07-30T07:18:39.838Z,13072
2018-07-30T07:19:39.575Z,13164
2018-07-30T07:20:39.698Z,13276
2018-07-30T07:21:40.152Z,13400
2018-07-30T07:22:39.834Z,13556
2018-07-30T07:23:39.845Z,13744
2018-07-30T07:24:39.602Z,13968
2018-07-30T07:25:39.855Z,14200
2018-07-30T07:26:39.839Z,14448
2018-07-30T07:27:39.347Z,14684
2018-07-30T07:28:39.348Z,14928
2018-07-30T07:29:39.605Z,15164
2018-07-30T07:30:39.863Z,15400
2018-07-30T07:31:39.606Z,15628
2018-07-30T07:32:39.610Z,15904
2018-07-30T07:33:39.612Z,16128
2018-07-30T07:34:52.701Z,16384
2018-07-30T07:35:39.906Z,16544
2018-07-30T07:36:39.877Z,16768
2018-07-30T07:37:39.886Z,17024
2018-07-30T07:38:39.878Z,17344
2018-07-30T07:39:39.945Z,17728
2018-07-30T07:40:39.888Z,18208
2018-07-30T07:41:39.901Z,19712
2018-07-30T07:42:39.895Z,20096
2018-07-30T07:43:39.896Z,19904
2018-07-30T07:44:39.909Z,20608
2018-07-30T07:45:39.905Z,21536
2018-07-30T07:46:39.906Z,22784
2018-07-30T07:47:39.949Z,22272
2018-07-30T07:48:39.744Z,22368
2018-07-30T07:49:39.927Z,23072
2018-07-30T07:50:41.167Z,26752
2018-07-30T07:51:40.119Z,27776
2018-07-30T07:52:39.966Z,31584
2018-07-30T07:53:39.997Z,34720
2018-07-30T07:54:39.952Z,24736
2018-07-30T07:55:39.961Z,22944
2018-07-30T07:56:39.975Z,23040
2018-07-30T07:57:39.718Z,20608
2018-07-30T07:58:39.980Z,19648
2018-07-30T07:59:39.722Z,19232
2018-07-30T08:00:39.723Z,18944
2018-07-30T08:01:40.079Z,18720
2018-07-30T08:02:39.991Z,18528
2018-07-30T08:03:39.993Z,18240
2018-07-30T08:04:40.007Z,18048
2018-07-30T08:05:40.020Z,17984
2018-07-30T08:06:40.018Z,18112
2018-07-30T08:07:40.038Z,18176
2018-07-30T08:08:40.023Z,18080
2018-07-30T08:09:39.559Z,18208
2018-07-30T08:10:40.034Z,18944
2018-07-30T08:11:39.809Z,21600
2018-07-30T08:12:52.795Z,25440
2018-07-30T08:13:39.834Z,31904
2018-07-30T08:14:39.560Z,58688
2018-07-30T08:15:40.082Z,67776
2018-07-30T08:16:40.074Z,35264
2018-07-30T08:17:42.632Z,25376
2018-07-30T08:18:39.829Z,20736
2018-07-30T08:19:52.853Z,19744
2018-07-30T08:20:46.109Z,20064
2018-07-30T08:21:52.843Z,43200
2018-07-30T08:22:40.116Z,82944
2018-07-30T08:23:40.126Z,72224
2018-07-30T08:24:39.917Z,72544
2018-07-30T08:25:42.823Z,73888
2018-07-30T08:26:46.495Z,82624
2018-07-30T08:27:40.166Z,87232
2018-07-30T08:28:40.155Z,84992
2018-07-30T08:29:40.172Z,75968
2018-07-30T08:30:39.675Z,68608
2018-07-30T08:31:40.191Z,67968
2018-07-30T08:32:39.954Z,69824
2018-07-30T08:33:40.215Z,81824
2018-07-30T08:34:40.235Z,89920
2018-07-30T08:35:40.225Z,97600
2018-07-30T08:36:40.255Z,95904
2018-07-30T08:37:40.034Z,77952
2018-07-30T08:38:40.015Z,54656
2018-07-30T08:39:40.277Z,47488
2018-07-30T08:40:40.287Z,58112
2018-07-30T08:41:40.295Z,73568
2018-07-30T08:42:40.315Z,83424
2018-07-30T08:43:40.327Z,86528
2018-07-30T08:44:40.087Z,87424
2018-07-30T08:45:39.847Z,83936
2018-07-30T08:46:40.384Z,77664
2018-07-30T08:47:40.377Z,72800
2018-07-30T08:48:40.168Z,70880
2018-07-30T08:49:40.415Z,71296
2018-07-30T08:50:40.435Z,72512
2018-07-30T08:51:40.435Z,73760
2018-07-30T08:52:53.192Z,45760
2018-07-30T08:53:40.490Z,20832
2018-07-30T08:54:40.235Z,10452
2018-07-30T08:55:40.253Z,10192
2018-07-30T08:56:40.255Z,10064
2018-07-30T08:57:40.264Z,10024
2018-07-30T08:58:40.530Z,9968
2018-07-30T08:59:40.289Z,9884
2018-07-30T09:00:40.565Z,9812
2018-07-30T09:01:40.574Z,9764
2018-07-30T09:02:40.574Z,9656
2018-07-30T09:03:40.345Z,9568
2018-07-30T09:04:40.602Z,9520
2018-07-30T09:05:40.605Z,9460
2018-07-30T09:06:41.218Z,9408
2018-07-30T09:07:40.371Z,9384
2018-07-30T09:08:40.386Z,9328
2018-07-30T09:09:40.394Z,9268
2018-07-30T09:10:40.408Z,9248
2018-07-30T09:11:40.409Z,9200
2018-07-30T09:12:40.810Z,9124
2018-07-30T09:13:40.683Z,9076
2018-07-30T09:14:40.686Z,9036
2018-07-30T09:15:40.437Z,9000
2018-07-30T09:16:40.709Z,8920
2018-07-30T09:17:40.723Z,8892
2018-07-30T09:18:40.720Z,8808
2018-07-30T09:19:40.221Z,8720
2018-07-30T09:20:40.479Z,8640
2018-07-30T09:21:40.738Z,8588
2018-07-30T09:22:40.741Z,8536
2018-07-30T09:23:40.502Z,8492
2018-07-30T09:24:40.499Z,8448
2018-07-30T09:25:41.011Z,8348
2018-07-30T09:26:40.526Z,8324
2018-07-30T09:27:40.776Z,8296
2018-07-30T09:28:40.541Z,8204
2018-07-30T09:29:40.544Z,8100
2018-07-30T09:30:40.787Z,8000
2018-07-30T09:31:40.798Z,7932
2018-07-30T09:32:41.104Z,7904
2018-07-30T09:33:40.553Z,7848
2018-07-30T09:34:40.815Z,7760
2018-07-30T09:35:40.815Z,7712
2018-07-30T09:36:40.824Z,7688
2018-07-30T09:37:40.603Z,7680
2018-07-30T09:38:40.936Z,7652
2018-07-30T09:39:40.845Z,7612
2018-07-30T09:40:40.849Z,7600
2018-07-30T09:41:40.857Z,7612
2018-07-30T09:42:40.601Z,7596
2018-07-30T09:43:40.858Z,7528
2018-07-30T09:44:41.039Z,7500
2018-07-30T09:45:40.870Z,7512
2018-07-30T09:46:40.880Z,7472
2018-07-30T09:47:40.904Z,7408
2018-07-30T09:48:40.384Z,7368
2018-07-30T09:49:40.896Z,7364
2018-07-30T09:50:40.977Z,7316
2018-07-30T09:51:40.911Z,7244
2018-07-30T09:52:40.907Z,7224
2018-07-30T09:53:40.912Z,7228
2018-07-30T09:54:40.960Z,7212
2018-07-30T09:55:40.675Z,7168
2018-07-30T09:56:40.937Z,7084
2018-07-30T09:57:40.953Z,6988
2018-07-30T09:58:41.009Z,6904
2018-07-30T09:59:40.733Z,6872
2018-07-30T10:00:40.949Z,6864
2018-07-30T10:01:40.722Z,6860
2018-07-30T10:02:40.707Z,6832
2018-07-30T10:03:40.971Z,6804
2018-07-30T10:04:41.005Z,6808
2018-07-30T10:05:41.028Z,6812
2018-07-30T10:06:40.733Z,6856
2018-07-30T10:07:40.837Z,6884
2018-07-30T10:08:41.001Z,6896
2018-07-30T10:09:40.999Z,6888
2018-07-30T10:10:41.000Z,6904
2018-07-30T10:11:41.267Z,6924
2018-07-30T10:12:41.022Z,6912
2018-07-30T10:13:40.775Z,6852
2018-07-30T10:14:41.036Z,6804
2018-07-30T10:15:40.791Z,6724
2018-07-30T10:16:41.032Z,6668
2018-07-30T10:17:41.012Z,6624
2018-07-30T10:18:40.816Z,6572
2018-07-30T10:19:41.052Z,6556
2018-07-30T10:20:41.055Z,6556
2018-07-30T10:21:41.080Z,6536
2018-07-30T10:22:41.066Z,6528
2018-07-30T10:23:41.017Z,6532
2018-07-30T10:24:41.085Z,6552
2018-07-30T10:25:41.079Z,6568
2018-07-30T10:26:41.089Z,6524
2018-07-30T10:27:41.090Z,6476
2018-07-30T10:28:40.850Z,6444
2018-07-30T10:29:41.112Z,6432
2018-07-30T10:30:41.265Z,6432
2018-07-30T10:31:41.108Z,6448
2018-07-30T10:32:41.127Z,6444
2018-07-30T10:33:40.929Z,6432
2018-07-30T10:34:41.348Z,6416
2018-07-30T10:35:40.877Z,6408
2018-07-30T10:36:41.137Z,6412
2018-07-30T10:37:41.182Z,6440
2018-07-30T10:38:40.929Z,6440
2018-07-30T10:39:41.169Z,6420
2018-07-30T10:40:41.156Z,6404
2018-07-30T10:41:41.183Z,6396
2018-07-30T10:42:40.937Z,6384
2018-07-30T10:43:41.165Z,6376
2018-07-30T10:44:41.174Z,6348
2018-07-30T10:45:41.188Z,6304
2018-07-30T10:46:41.202Z,6232
2018-07-30T10:47:41.197Z,6128
2018-07-30T10:48:41.205Z,6036
2018-07-30T10:49:41.225Z,6056
2018-07-30T10:50:40.951Z,6092
2018-07-30T10:51:41.259Z,6096
2018-07-30T10:52:41.230Z,6076
2018-07-30T10:53:41.327Z,6076
2018-07-30T10:54:41.236Z,6100
2018-07-30T10:55:40.733Z,6124
2018-07-30T10:56:41.359Z,6120
2018-07-30T10:57:40.989Z,6092
2018-07-30T10:58:41.355Z,6052
2018-07-30T10:59:41.249Z,6024
2018-07-30T11:00:41.280Z,6016
2018-07-30T11:01:41.262Z,6032
2018-07-30T11:02:41.265Z,6044
2018-07-30T11:03:41.294Z,6056
2018-07-30T11:04:41.042Z,6056
2018-07-30T11:05:41.036Z,6048
2018-07-30T11:06:41.298Z,6032
2018-07-30T11:07:41.319Z,5996
2018-07-30T11:08:41.310Z,5980
2018-07-30T11:09:41.522Z,5956
2018-07-30T11:10:41.083Z,5940
2018-07-30T11:11:41.330Z,5912
2018-07-30T11:12:41.332Z,5904
2018-07-30T11:13:41.359Z,5900
2018-07-30T11:14:41.879Z,5896
2018-07-30T11:15:41.357Z,5900
2018-07-30T11:16:41.354Z,5912
2018-07-30T11:17:41.403Z,5928
2018-07-30T11:18:41.380Z,5928
2018-07-30T11:19:41.370Z,5924
2018-07-30T11:20:41.391Z,5916
2018-07-30T11:21:41.010Z,5912
2018-07-30T11:22:41.137Z,5908
2018-07-30T11:23:40.879Z,5912
2018-07-30T11:24:41.406Z,5892
2018-07-30T11:25:41.395Z,5868
2018-07-30T11:26:41.407Z,5848
2018-07-30T11:27:41.152Z,5840
2018-07-30T11:28:41.201Z,5840
2018-07-30T11:29:41.416Z,5848
2018-07-30T11:30:41.221Z,5856
2018-07-30T11:31:41.172Z,5868
2018-07-30T11:32:41.192Z,5868
2018-07-30T11:33:41.868Z,5860
2018-07-30T11:34:41.470Z,5856
2018-07-30T11:35:41.224Z,5844
2018-07-30T11:36:41.464Z,5832
2018-07-30T11:37:40.753Z,5816
2018-07-30T11:38:40.965Z,5804
2018-07-30T11:39:41.545Z,5792
2018-07-30T11:40:40.989Z,5792
2018-07-30T11:41:41.484Z,5792
2018-07-30T11:42:41.502Z,5784
2018-07-30T11:43:41.425Z,5772
2018-07-30T11:44:41.513Z,5768
2018-07-30T11:45:41.521Z,5780
2018-07-30T11:46:41.509Z,5764
2018-07-30T11:47:41.521Z,5744
2018-07-30T11:48:41.106Z,5744
2018-07-30T11:49:41.551Z,5768
2018-07-30T11:50:41.536Z,5796
2018-07-30T11:51:41.543Z,5796
2018-07-30T11:52:41.566Z,5804
2018-07-30T11:53:41.652Z,5848
2018-07-30T11:54:41.654Z,5916
2018-07-30T11:55:41.567Z,5956
2018-07-30T11:56:41.575Z,5932
2018-07-30T11:57:41.600Z,5860
2018-07-30T11:58:41.344Z,5676
2018-07-30T11:59:41.349Z,5776
2018-07-30T12:00:41.089Z,5736
2018-07-30T12:01:41.381Z,5704
2018-07-30T12:02:41.359Z,5676
2018-07-30T12:03:41.361Z,5664
2018-07-30T12:04:41.126Z,5664
2018-07-30T12:05:41.372Z,5660
2018-07-30T12:06:41.390Z,5692
2018-07-30T12:07:41.389Z,5780
2018-07-30T12:08:41.409Z,5876
2018-07-30T12:09:41.156Z,5940
2018-07-30T12:10:41.704Z,5976
2018-07-30T12:11:41.685Z,6008
2018-07-30T12:12:41.671Z,5944
2018-07-30T12:13:41.852Z,5876
2018-07-30T12:14:41.681Z,5848
2018-07-30T12:15:41.696Z,5828
2018-07-30T12:16:41.713Z,5856
2018-07-30T12:17:41.741Z,5924
2018-07-30T12:18:41.715Z,5968
2018-07-30T12:19:41.716Z,5964
2018-07-30T12:20:41.769Z,5896
2018-07-30T12:21:41.840Z,5860
2018-07-30T12:22:41.760Z,5896
2018-07-30T12:23:41.502Z,5968
2018-07-30T12:24:41.511Z,6004
2018-07-30T12:25:41.743Z,6004
2018-07-30T12:26:41.752Z,5988
2018-07-30T12:27:41.513Z,5880
2018-07-30T12:28:41.512Z,5864
2018-07-30T12:29:41.288Z,5788
2018-07-30T12:30:41.842Z,5768
2018-07-30T12:31:41.802Z,6032
2018-07-30T12:32:41.536Z,6316
2018-07-30T12:33:41.819Z,6524
2018-07-30T12:34:41.548Z,6592
2018-07-30T12:35:41.815Z,6472
2018-07-30T12:36:42.084Z,6388
2018-07-30T12:37:41.568Z,6344
2018-07-30T12:38:41.592Z,6240
2018-07-30T12:39:41.333Z,6164
2018-07-30T12:40:41.596Z,6000
2018-07-30T12:41:41.630Z,5928
2018-07-30T12:42:41.891Z,6004
2018-07-30T12:43:41.915Z,6004
2018-07-30T12:44:41.870Z,5996
2018-07-30T12:45:41.885Z,5964
2018-07-30T12:46:41.870Z,5920
2018-07-30T12:47:41.883Z,5892
2018-07-30T12:48:41.732Z,5896
2018-07-30T12:49:41.650Z,5856
2018-07-30T12:50:42.283Z,5732
2018-07-30T12:51:41.953Z,5772
2018-07-30T12:52:41.980Z,5844
2018-07-30T12:53:41.970Z,5984
2018-07-30T12:54:41.809Z,6328
2018-07-30T12:55:41.931Z,6740
2018-07-30T12:56:41.932Z,6936
2018-07-30T12:57:41.942Z,6952
2018-07-30T12:58:41.943Z,7012
2018-07-30T12:59:41.705Z,7036
2018-07-30T13:00:41.717Z,7076
2018-07-30T13:01:41.972Z,6996
2018-07-30T13:02:41.718Z,6852
2018-07-30T13:03:41.733Z,6760
2018-07-30T13:04:41.741Z,6740
2018-07-30T13:05:42.012Z,6772
2018-07-30T13:06:41.999Z,6468
2018-07-30T13:07:42.038Z,6288
2018-07-30T13:08:41.755Z,6312
2018-07-30T13:09:42.014Z,6352
2018-07-30T13:10:42.037Z,6296
2018-07-30T13:11:42.037Z,6276
2018-07-30T13:12:41.787Z,6144
2018-07-30T13:13:42.214Z,6048
2018-07-30T13:14:42.051Z,5992
2018-07-30T13:15:42.057Z,5936
2018-07-30T13:16:42.100Z,5956
2018-07-30T13:17:41.853Z,6024
2018-07-30T13:18:42.070Z,6096
2018-07-30T13:19:42.088Z,6144
2018-07-30T13:20:42.100Z,6320
2018-07-30T13:21:42.095Z,6460
2018-07-30T13:22:41.869Z,6716
2018-07-30T13:23:42.119Z,6968
2018-07-30T13:24:42.119Z,7048
2018-07-30T13:25:41.869Z,7100
2018-07-30T13:26:42.943Z,7036
2018-07-30T13:27:42.129Z,7140
2018-07-30T13:28:42.141Z,7160
2018-07-30T13:29:41.909Z,7264
2018-07-30T13:30:41.899Z,7312
2018-07-30T13:31:41.655Z,7292